Time;durP1;ratioP1;P1;durP2;ratioP2;P2;SDS_P1;SDS_P2;PMS_P1;PMS_P2;Temp;Humidity;BMP_temperature;BMP_pressure;BME280_temperature;BME280_humidity;BME280_pressure;Samples;Min_cycle;Max_cycle;Signal;HPM_P1;HPM_P2
2022/03/04 00:01:46;;;;;;;87.10;31.70;;;;;;;0.36;63.51;94882.03;5072955;28;20403;-81
2022/03/04 00:04:12;;;;;;;74.22;30.20;;;;;;;-0.40;63.67;94781.53;5058449;28;20079;-81
2022/03/04 00:06:38;;;;;;;74.43;30.50;;;;;;;0.24;63.76;94863.69;5039867;28;20044;-81
2022/03/04 00:09:04;;;;;;;66.85;29.60;;;;;;;0.36;63.66;94890.66;5057854;28;20037;-81
2022/03/04 00:11:29;;;;;;;72.80;30.52;;;;;;;0.28;63.47;94877.91;5055532;28;20580;-81
2022/03/04 00:13:55;;;;;;;75.00;31.00;;;;;;;0.05;63.73;94877.75;5058298;28;20082;-81
2022/03/04 00:16:20;;;;;;;79.75;31.98;;;;;;;-0.59;64.38;94807.75;5039117;28;20525;-81
2022/03/04 00:19:06;;;;;;;71.07;30.05;;;;;;;0.20;64.27;94908.69;5057149;28;20044;-81
2022/03/04 00:21:32;;;;;;;87.07;33.65;;;;;;;0.27;64.55;94932.91;5057748;28;20541;-81
2022/03/04 00:23:58;;;;;;;89.43;35.90;;;;;;;-0.47;64.81;94801.66;5039221;28;20135;-82
2022/03/04 00:26:23;;;;;;;100.40;38.60;;;;;;;0.38;65.11;94930.34;5056928;28;20059;-81
2022/03/04 00:28:49;;;;;;;92.03;38.50;;;;;;;-0.44;64.99;94821.25;5039746;28;20541;-81
2022/03/04 00:31:14;;;;;;;87.18;37.08;;;;;;;-0.36;65.39;94870.47;5057254;28;20356;-81
2022/03/04 00:33:39;;;;;;;94.72;37.42;;;;;;;0.17;64.97;94922.94;5055352;28;20032;-81
2022/03/04 00:36:05;;;;;;;81.75;36.40;;;;;;;-0.34;65.04;94821.56;5056506;28;20044;-81
2022/03/04 00:38:30;;;;;;;83.35;35.75;;;;;;;-0.30;65.84;94825.31;5038212;28;20033;-81
2022/03/04 00:40:56;;;;;;;98.22;41.15;;;;;;;-0.55;65.35;94793.31;5038439;28;20075;-81
2022/03/04 00:43:21;;;;;;;79.55;37.22;;;;;;;-1.03;65.21;94726.19;5057940;28;20025;-80
2022/03/04 00:45:47;;;;;;;83.43;36.60;;;;;;;-0.22;65.15;94848.50;5056903;28;20040;-80
2022/03/04 00:48:12;;;;;;;93.15;38.95;;;;;;;-0.16;65.50;94870.31;5057602;28;20025;-81
2022/03/04 00:50:38;;;;;;;100.57;41.83;;;;;;;0.14;66.19;94918.19;5056793;28;20036;-81
2022/03/04 00:53:17;;;;;;;91.00;40.80;;;;;;;-0.93;65.56;94759.56;1058593;28;10022764;-81
2022/03/04 00:55:43;;;;;;;123.18;48.15;;;;;;;-0.03;65.97;94893.66;4706914;28;10001254;-81
2022/03/04 00:58:08;;;;;;;137.48;56.28;;;;;;;0.29;65.74;94923.06;5056586;28;20064;-80
2022/03/04 01:00:35;;;;;;;129.15;53.53;;;;;;;0.31;65.75;94913.19;5038265;28;20025;-79
2022/03/04 01:03:04;;;;;;;137.18;58.78;;;;;;;0.30;65.82;94909.00;5056414;28;20036;-80
2022/03/04 01:05:30;;;;;;;124.90;53.38;;;;;;;-0.25;66.06;94832.50;5056393;28;20032;-80
2022/03/04 01:07:56;;;;;;;123.80;48.20;;;;;;;0.26;65.78;94907.81;5056289;28;20155;-80
2022/03/04 01:10:21;;;;;;;108.25;47.55;;;;;;;-1.18;66.19;94710.09;5055741;28;20056;-81
2022/03/04 01:12:47;;;;;;;123.38;47.88;;;;;;;0.16;66.45;94904.91;5037870;28;20186;-81
2022/03/04 01:15:13;;;;;;;124.45;52.35;;;;;;;0.16;66.81;94918.75;5038310;28;20103;-80
2022/03/04 01:17:39;;;;;;;133.55;56.28;;;;;;;-0.26;66.27;94841.34;5055586;28;20036;-80
2022/03/04 01:20:06;;;;;;;142.13;62.00;;;;;;;-0.47;67.12;94806.06;5037495;28;20036;-81
2022/03/04 01:22:32;;;;;;;136.88;56.60;;;;;;;0.03;66.91;94890.19;5055811;28;20025;-81
2022/03/04 01:24:57;;;;;;;135.52;57.20;;;;;;;-0.72;67.24;94766.19;5037953;28;20059;-81
2022/03/04 01:27:24;;;;;;;141.82;60.28;;;;;;;-0.82;66.76;94730.22;5037541;28;20117;-81
2022/03/04 01:29:49;;;;;;;153.63;63.17;;;;;;;0.22;66.81;94898.84;5037505;28;20044;-81
2022/03/04 01:32:15;;;;;;;156.18;66.55;;;;;;;-0.41;67.25;94813.00;5055007;28;20033;-81
2022/03/04 01:34:41;;;;;;;176.95;68.75;;;;;;;-0.31;67.84;94828.97;5054636;28;20049;-80
2022/03/04 01:37:07;;;;;;;145.45;63.70;;;;;;;-0.86;67.95;94757.72;5054885;28;20040;-81
2022/03/04 01:39:33;;;;;;;155.98;65.28;;;;;;;-0.44;67.48;94795.19;5055702;28;20029;-81
2022/03/04 01:41:58;;;;;;;151.45;63.50;;;;;;;-0.31;67.48;94812.53;5054142;28;20048;-80
2022/03/04 01:44:24;;;;;;;157.98;63.13;;;;;;;-0.45;67.70;94791.00;5055280;28;20072;-81
2022/03/04 01:46:50;;;;;;;145.63;62.88;;;;;;;-0.54;68.29;94828.75;5054953;28;20495;-81
2022/03/04 01:49:16;;;;;;;149.80;62.95;;;;;;;-0.71;68.32;94786.81;5036652;28;20036;-81
2022/03/04 01:51:42;;;;;;;148.52;60.33;;;;;;;-0.43;67.82;94788.97;5070143;28;20422;-81
2022/03/04 01:54:07;;;;;;;159.00;66.40;;;;;;;-0.26;68.06;94825.69;5036780;28;20040;-80
2022/03/04 01:56:33;;;;;;;153.15;64.15;;;;;;;-0.21;68.49;94862.34;5055011;28;20033;-81
2022/03/04 01:58:59;;;;;;;152.73;63.92;;;;;;;-0.69;68.52;94781.41;5055086;28;20483;-82
2022/03/04 02:01:24;;;;;;;150.52;64.15;;;;;;;-0.62;67.96;94789.97;5070168;28;20119;-81
2022/03/04 02:03:50;;;;;;;143.13;61.53;;;;;;;-1.14;68.49;94728.72;5037405;28;20123;-80
2022/03/04 02:06:16;;;;;;;154.15;63.58;;;;;;;-0.60;68.99;94806.16;5052804;28;20033;-80
2022/03/04 02:08:41;;;;;;;161.18;65.75;;;;;;;-1.18;68.57;94703.09;5036688;28;20032;-81
2022/03/04 02:11:07;;;;;;;156.65;67.75;;;;;;;-0.73;68.78;94757.59;5036343;28;20037;-80
2022/03/04 02:13:34;;;;;;;163.68;70.13;;;;;;;-0.08;69.02;94880.47;5036081;28;20063;-81
2022/03/04 02:16:00;;;;;;;180.70;71.30;;;;;;;-1.38;68.51;94653.03;5036237;28;20025;-81
2022/03/04 02:18:25;;;;;;;164.93;69.72;;;;;;;-1.03;68.30;94709.78;5054482;28;20499;-80
2022/03/04 02:20:52;;;;;;;170.38;69.72;;;;;;;0.07;68.74;94870.50;5052861;28;20025;-81
2022/03/04 02:23:19;;;;;;;169.23;68.68;;;;;;;-4.34;68.29;94180.81;5054032;28;20033;-81
2022/03/04 02:25:50;;;;;;;167.60;68.80;;;;;;;-0.40;67.97;94783.34;5036394;28;20131;-81
2022/03/04 02:28:17;;;;;;;163.95;69.82;;;;;;;-1.26;68.37;94659.13;5036607;28;20432;-81
2022/03/04 02:30:43;;;;;;;158.82;68.60;;;;;;;0.11;68.20;94866.44;5052811;28;20029;-81
2022/03/04 02:33:09;;;;;;;157.93;66.97;;;;;;;-0.99;67.97;94703.94;5069324;28;20094;-82
2022/03/04 02:35:36;;;;;;;127.30;53.60;;;;;;;-0.15;67.70;94824.97;5036753;28;20060;-81
2022/03/04 02:38:02;;;;;;;124.00;53.20;;;;;;;-0.68;67.22;94736.09;5055346;28;20029;-81
2022/03/04 02:40:28;;;;;;;136.73;53.53;;;;;;;0.15;67.20;94864.22;5037340;28;20027;-81
2022/03/04 02:42:54;;;;;;;126.43;53.05;;;;;;;-0.69;66.88;94735.34;5055359;28;20506;-81
2022/03/04 02:45:20;;;;;;;123.82;52.85;;;;;;;-0.71;67.28;94759.97;5037132;28;20033;-82
2022/03/04 02:47:45;;;;;;;114.78;49.03;;;;;;;-0.78;66.80;94734.00;5055311;28;20072;-84
2022/03/04 02:50:11;;;;;;;114.22;49.35;;;;;;;-0.48;66.78;94779.22;5040570;28;20123;-82
2022/03/04 02:52:50;;;;;;;123.75;52.30;;;;;;;-0.14;67.60;94856.03;1774446;28;10022741;-81
2022/03/04 02:55:16;;;;;;;125.25;51.08;;;;;;;-0.86;67.87;94757.72;4012054;28;10001046;-81
2022/03/04 02:57:44;;;;;;;123.38;49.67;;;;;;;-0.55;67.42;94806.31;5040919;28;20049;-82
2022/03/04 03:00:12;;;;;;;110.60;49.05;;;;;;;-0.27;67.23;94835.31;5059552;28;20090;-81
2022/03/04 03:02:37;;;;;;;106.78;46.63;;;;;;;-0.48;67.14;94792.22;5061046;28;20123;-81
2022/03/04 03:05:03;;;;;;;109.90;46.22;;;;;;;-0.15;66.87;94832.78;5075176;28;20079;-81
2022/03/04 03:07:29;;;;;;;109.95;45.42;;;;;;;-0.46;67.04;94789.41;5060660;28;20060;-81
2022/03/04 03:09:55;;;;;;;125.03;51.92;;;;;;;-0.84;67.20;94750.50;5059598;28;20037;-81
2022/03/04 03:12:21;;;;;;;126.43;52.92;;;;;;;-1.46;67.38;94655.91;5060137;28;20075;-82
2022/03/04 03:14:47;;;;;;;137.20;56.17;;;;;;;-0.63;67.33;94781.34;5042798;28;20032;-81
2022/03/04 03:17:12;;;;;;;137.23;57.40;;;;;;;-0.45;67.08;94806.63;5075247;28;20040;-81
2022/03/04 03:19:38;;;;;;;110.32;49.88;;;;;;;-1.07;67.08;94717.25;5059154;28;20037;-81
2022/03/04 03:22:04;;;;;;;107.95;49.47;;;;;;;-0.52;67.18;94798.88;5041795;28;20036;-81
2022/03/04 03:24:29;;;;;;;123.65;51.95;;;;;;;-1.60;66.83;94646.56;5060565;28;20043;-81
2022/03/04 03:26:54;;;;;;;89.78;39.30;;;;;;;-1.43;66.70;94681.47;5041861;28;20045;-81
2022/03/04 03:29:20;;;;;;;96.00;40.90;;;;;;;-0.78;66.83;94799.09;5074977;28;20041;-81
2022/03/04 03:31:45;;;;;;;93.03;38.67;;;;;;;-0.73;66.91;94788.03;5058736;28;20397;-81
2022/03/04 03:34:11;;;;;;;88.18;38.53;;;;;;;-0.19;66.95;94866.31;5059443;28;20573;-81
2022/03/04 03:36:36;;;;;;;94.47;41.03;;;;;;;-0.68;66.73;94788.19;5059155;28;20543;-81
2022/03/04 03:39:02;;;;;;;93.13;40.58;;;;;;;-0.58;66.40;94785.91;5059712;28;20025;-82
2022/03/04 03:41:28;;;;;;;95.95;41.03;;;;;;;-0.96;66.25;94762.59;5060188;28;20047;-81
2022/03/04 03:43:53;;;;;;;90.60;39.13;;;;;;;-0.20;66.44;94872.56;5059572;28;20040;-81
2022/03/04 03:46:19;;;;;;;115.65;50.50;;;;;;;-1.93;67.43;94639.00;5074479;28;20025;-81
2022/03/04 03:48:45;;;;;;;118.07;50.88;;;;;;;-1.37;67.38;94704.03;5059819;28;20039;-81
2022/03/04 03:51:11;;;;;;;119.28;51.08;;;;;;;-0.81;67.37;94796.91;5060043;28;20033;-81
2022/03/04 03:53:36;;;;;;;106.93;49.08;;;;;;;-1.50;67.55;94713.72;5060024;28;20071;-81
2022/03/04 03:56:03;;;;;;;113.13;50.53;;;;;;;-0.59;67.42;94833.78;5059595;28;20036;-81
2022/03/04 03:58:28;;;;;;;133.98;52.30;;;;;;;-0.88;67.80;94796.16;5041398;28;20102;-81
2022/03/04 04:00:55;;;;;;;122.70;51.63;;;;;;;-1.08;67.56;94754.69;5058771;28;20449;-80
2022/03/04 04:03:20;;;;;;;120.97;51.67;;;;;;;-1.00;68.02;94813.47;5059836;28;20029;-80
2022/03/04 04:05:46;;;;;;;120.53;51.13;;;;;;;-0.55;67.97;94848.81;5060092;28;20041;-81
2022/03/04 04:08:11;;;;;;;125.90;52.08;;;;;;;-0.42;68.18;94874.75;5041730;28;20029;-81
2022/03/04 04:10:37;;;;;;;117.18;51.92;;;;;;;-0.90;68.19;94808.59;5058986;28;20051;-82
2022/03/04 04:13:03;;;;;;;113.13;51.33;;;;;;;-0.47;68.06;94882.41;5041740;28;20041;-81
2022/03/04 04:15:28;;;;;;;112.60;50.13;;;;;;;-1.85;67.71;94650.97;5057978;28;20506;-81
2022/03/04 04:17:54;;;;;;;112.97;49.85;;;;;;;-1.02;67.75;94795.47;5057987;28;20087;-81
2022/03/04 04:20:19;;;;;;;130.20;50.20;;;;;;;-1.38;67.70;94749.28;5058113;28;20483;-81
2022/03/04 04:22:45;;;;;;;115.68;49.05;;;;;;;-1.76;68.43;94707.69;5058903;28;20529;-81
2022/03/04 04:25:10;;;;;;;129.73;51.72;;;;;;;-1.65;67.94;94706.22;5059692;28;20033;-81
2022/03/04 04:27:36;;;;;;;127.68;52.55;;;;;;;-0.45;68.23;94882.16;5040786;28;20028;-80
2022/03/04 04:30:03;;;;;;;116.25;50.55;;;;;;;-0.45;67.85;94875.16;5058272;28;20039;-81
2022/03/04 04:32:28;;;;;;;118.68;51.15;;;;;;;-0.72;67.88;94844.31;5040676;28;20036;-81
2022/03/04 04:34:54;;;;;;;122.38;50.08;;;;;;;-0.45;67.88;94879.56;5058746;28;20108;-80
2022/03/04 04:37:19;;;;;;;113.75;49.20;;;;;;;-2.27;67.64;94606.41;5040612;28;20542;-80
2022/03/04 04:39:45;;;;;;;123.43;51.03;;;;;;;-1.44;67.95;94733.69;5058716;28;20097;-81
2022/03/04 04:42:10;;;;;;;112.35;49.13;;;;;;;-1.57;68.02;94717.19;5059020;28;20470;-80
2022/03/04 04:44:36;;;;;;;129.80;49.42;;;;;;;-0.44;68.30;94912.44;5058526;28;20033;-81
2022/03/04 04:47:01;;;;;;;118.35;50.45;;;;;;;-0.39;67.86;94907.41;5040448;28;20035;-80
2022/03/04 04:49:27;;;;;;;123.65;51.88;;;;;;;-1.21;68.22;94823.19;5074122;28;20437;-80
2022/03/04 04:52:05;;;;;;;110.20;47.15;;;;;;;-1.61;67.93;94749.03;3951923;28;10001923;-81
2022/03/04 04:54:31;;;;;;;131.77;50.90;;;;;;;-1.52;67.75;94755.53;1749291;28;10002000;-80
2022/03/04 04:56:57;;;;;;;104.93;47.45;;;;;;;-1.47;67.72;94745.31;5079345;28;20494;-80
2022/03/04 04:59:22;;;;;;;108.05;44.65;;;;;;;-1.19;67.71;94823.78;5078670;28;20033;-80
2022/03/04 05:01:48;;;;;;;90.10;42.05;;;;;;;-1.77;67.92;94770.28;5078881;28;20033;-81
2022/03/04 05:04:13;;;;;;;99.18;43.70;;;;;;;-1.40;67.63;94802.50;5076106;28;20040;-81
2022/03/04 05:06:39;;;;;;;105.03;47.47;;;;;;;-0.88;67.87;94913.31;5078466;28;20036;-82
2022/03/04 05:09:04;;;;;;;108.90;48.63;;;;;;;-2.02;68.12;94749.41;5077896;28;20048;-81
2022/03/04 05:11:30;;;;;;;109.18;50.05;;;;;;;-1.62;68.49;94826.22;5078204;28;20110;-81
2022/03/04 05:13:55;;;;;;;114.78;52.85;;;;;;;-1.07;67.87;94912.44;5079158;28;20044;-81
2022/03/04 05:16:21;;;;;;;126.47;55.25;;;;;;;-1.14;68.27;94887.44;5060480;28;20067;-81
2022/03/04 05:18:47;;;;;;;129.88;53.55;;;;;;;-1.00;68.41;94905.38;5080246;28;20029;-83
2022/03/04 05:21:12;;;;;;;129.68;57.33;;;;;;;-1.58;68.16;94813.59;5076067;28;20078;-81
2022/03/04 05:26:22;;;;;;;136.10;58.28;;;;;;;-1.64;69.35;94843.03;5078393;28;20139;-82
2022/03/04 05:29:03;;;;;;;130.20;56.80;;;;;;;-1.73;69.27;94811.25;5061364;28;20056;-83
2022/03/04 05:31:29;;;;;;;135.20;56.78;;;;;;;-1.98;68.49;94751.38;5079932;28;20036;-83
2022/03/04 05:33:55;;;;;;;135.80;59.15;;;;;;;-1.83;68.27;94771.13;5078836;28;20085;-83
2022/03/04 05:36:21;;;;;;;129.63;55.72;;;;;;;-2.44;68.40;94702.19;5062457;28;20043;-84
2022/03/04 05:38:48;;;;;;;136.02;56.78;;;;;;;-1.09;69.10;94917.03;5078624;28;20050;-83
2022/03/04 05:41:15;;;;;;;122.20;52.70;;;;;;;-1.69;68.77;94814.25;5081292;28;20050;-82
2022/03/04 05:43:40;;;;;;;112.35;50.58;;;;;;;-1.49;68.68;94835.75;5080519;28;20078;-83
2022/03/04 05:46:08;;;;;;;122.85;50.30;;;;;;;-2.16;68.45;94711.50;5080169;28;20028;-84
2022/03/04 05:48:34;;;;;;;123.30;50.88;;;;;;;-2.29;67.98;94696.75;5079820;28;20040;-83
2022/03/04 05:51:00;;;;;;;110.03;49.13;;;;;;;-3.69;67.91;94483.81;5060044;28;20036;-84
2022/03/04 05:53:25;;;;;;;134.07;48.20;;;;;;;-2.08;68.00;94719.06;5060566;28;20483;-83
2022/03/04 05:55:51;;;;;;;102.28;48.00;;;;;;;-1.12;68.32;94881.00;5078068;28;20032;-83
2022/03/04 05:58:16;;;;;;;121.20;49.10;;;;;;;-1.64;68.17;94783.22;5061109;28;20119;-84
2022/03/04 06:00:42;;;;;;;100.80;45.83;;;;;;;-2.13;67.27;94683.28;5079510;28;20024;-84
2022/03/04 06:03:08;;;;;;;120.07;46.45;;;;;;;-1.40;67.26;94802.50;5078463;28;20048;-84
2022/03/04 06:05:34;;;;;;;96.18;45.45;;;;;;;-1.52;67.19;94789.34;5061440;28;20058;-84
2022/03/04 06:08:00;;;;;;;102.10;45.97;;;;;;;-2.18;67.11;94683.13;5080110;28;20055;-84
2022/03/04 06:10:25;;;;;;;105.03;42.88;;;;;;;-2.00;67.13;94692.84;5079734;28;20067;-83
2022/03/04 06:12:52;;;;;;;97.95;44.78;;;;;;;-0.58;67.61;94921.34;5078579;28;20025;-83
2022/03/04 06:15:17;;;;;;;103.07;44.60;;;;;;;-0.84;66.88;94852.78;5077880;28;20035;-83
2022/03/04 06:17:50;;;;;;;106.45;45.55;;;;;;;-0.36;67.19;94922.59;5078185;28;20032;-83
2022/03/04 06:20:17;;;;;;;95.95;44.45;;;;;;;-1.89;66.11;94712.16;5075669;28;20369;-83
2022/03/04 06:22:43;;;;;;;100.55;42.83;;;;;;;-0.68;66.29;94854.09;5076670;28;20036;-82
2022/03/04 06:25:11;;;;;;;93.88;43.90;;;;;;;-1.11;66.49;94788.91;5076122;28;20055;-82
2022/03/04 06:27:51;;;;;;;98.28;43.83;;;;;;;-2.61;65.89;94518.53;5072454;28;20036;-81
2022/03/04 06:30:16;;;;;;;100.90;43.35;;;;;;;-1.41;65.81;94694.25;5072286;28;20036;-81
2022/03/04 06:32:42;;;;;;;103.88;45.53;;;;;;;-0.22;65.83;94882.38;5056372;28;20481;-82
2022/03/04 06:35:07;;;;;;;96.93;42.63;;;;;;;-0.43;65.36;94846.28;5075178;28;20052;-81
2022/03/04 06:37:33;;;;;;;93.75;42.20;;;;;;;-0.70;65.70;94801.44;5074636;28;20032;-82
2022/03/04 06:39:58;;;;;;;90.88;38.28;;;;;;;-0.34;65.11;94865.84;5074998;28;20062;-82
2022/03/04 06:42:24;;;;;;;85.10;40.10;;;;;;;0.04;64.55;94919.66;5074121;28;20094;-82
2022/03/04 06:44:49;;;;;;;94.90;40.10;;;;;;;-0.34;64.26;94845.00;5073238;28;20020;-82
2022/03/04 06:47:15;;;;;;;111.75;41.55;;;;;;;-0.72;64.07;94810.47;5073581;28;20565;-82
2022/03/04 06:49:40;;;;;;;92.50;41.42;;;;;;;-0.36;64.62;94867.06;5072361;28;20490;-82
2022/03/04 06:52:06;;;;;;;120.38;50.28;;;;;;;-0.61;65.20;94834.00;5073665;28;20547;-82
2022/03/04 06:54:33;;;;;;;118.15;50.33;;;;;;;-0.49;65.30;94832.31;5056528;28;20071;-82
2022/03/04 06:57:02;;;;;;;104.22;47.38;;;;;;;0.16;64.69;94900.47;5073687;28;20340;-82
2022/03/04 06:59:27;;;;;;;111.93;47.92;;;;;;;-1.33;64.28;94683.59;5056159;28;20501;-82
2022/03/04 07:01:53;;;;;;;137.55;52.38;;;;;;;-0.68;64.30;94786.38;5074138;28;20024;-82
2022/03/04 07:04:19;;;;;;;110.72;50.70;;;;;;;0.39;64.20;94942.38;5054825;28;20041;-82
2022/03/04 07:06:45;;;;;;;127.70;53.45;;;;;;;-0.75;64.29;94790.06;5055192;28;20044;-82
2022/03/04 07:09:10;;;;;;;137.30;54.38;;;;;;;-0.22;64.41;94856.31;5070764;28;20038;-82
2022/03/04 07:11:36;;;;;;;111.15;47.10;;;;;;;0.10;63.62;94888.31;5072635;28;20028;-82
2022/03/04 07:14:01;;;;;;;122.65;48.85;;;;;;;-0.58;63.11;94799.72;5070704;28;20029;-82
2022/03/04 07:16:27;;;;;;;112.72;49.47;;;;;;;-0.36;63.54;94870.47;5072082;28;20060;-82
2022/03/04 07:18:52;;;;;;;127.38;50.67;;;;;;;0.46;63.28;94918.06;5056184;28;20024;-83
2022/03/04 07:21:17;;;;;;;135.95;51.75;;;;;;;-0.30;62.93;94794.06;5075896;28;20040;-82
2022/03/04 07:23:43;;;;;;;112.00;44.08;;;;;;;0.82;62.71;94949.38;5073573;28;20503;-83
2022/03/04 07:26:10;;;;;;;96.40;42.88;;;;;;;0.52;63.13;94898.94;5072622;28;20032;-83
2022/03/04 07:28:36;;;;;;;89.53;39.90;;;;;;;-0.04;62.63;94793.00;5054302;28;20510;-82
2022/03/04 07:31:02;;;;;;;101.00;44.55;;;;;;;0.73;61.78;94891.44;5054645;28;20104;-83
2022/03/04 07:33:28;;;;;;;93.72;42.15;;;;;;;0.27;61.81;94818.94;5054297;28;20048;-82
2022/03/04 07:35:54;;;;;;;113.65;43.10;;;;;;;0.56;61.49;94832.22;5070591;28;20110;-82
2022/03/04 07:38:19;;;;;;;89.75;42.00;;;;;;;1.15;60.99;94957.59;5075892;28;20032;-83
2022/03/04 07:40:45;;;;;;;99.50;43.20;;;;;;;0.52;61.71;94837.09;5075454;28;20433;-83
2022/03/04 07:43:11;;;;;;;90.63;41.67;;;;;;;1.36;60.69;94966.81;5056200;28;20036;-83
2022/03/04 07:45:36;;;;;;;80.95;36.08;;;;;;;0.89;60.25;94848.28;5074710;28;20068;-83
2022/03/04 07:48:02;;;;;;;85.80;35.95;;;;;;;1.64;60.09;94919.16;5075267;28;20037;-83
2022/03/04 07:50:27;;;;;;;79.72;36.22;;;;;;;-0.01;59.36;94657.81;5076014;28;20041;-83
2022/03/04 07:52:53;;;;;;;84.68;38.40;;;;;;;1.38;61.04;94896.00;5076532;28;20028;-82
2022/03/04 07:55:18;;;;;;;88.30;37.03;;;;;;;2.08;59.74;94949.25;5057315;28;20028;-82
2022/03/04 07:57:44;;;;;;;91.03;37.28;;;;;;;2.07;59.31;94946.84;5056469;28;20036;-84
2022/03/04 08:00:13;;;;;;;72.35;35.25;;;;;;;1.51;58.76;94852.22;5055501;28;20029;-81
2022/03/04 08:02:39;;;;;;;85.22;34.47;;;;;;;1.90;58.78;94895.22;5055971;28;20128;-84
2022/03/04 08:05:08;;;;;;;69.45;33.70;;;;;;;1.67;58.39;94886.56;5074410;28;20060;-83
2022/03/04 08:07:34;;;;;;;64.40;31.85;;;;;;;1.29;57.67;94824.22;5056112;28;20045;-82
2022/03/04 08:09:59;;;;;;;66.82;33.22;;;;;;;1.19;57.75;94795.22;5071823;28;20035;-83
2022/03/04 08:12:25;;;;;;;76.38;34.53;;;;;;;1.14;57.19;94739.22;5054433;28;20048;-83
2022/03/04 08:14:51;;;;;;;65.53;33.00;;;;;;;1.73;56.86;94800.16;5072729;28;20025;-82
2022/03/04 08:17:20;;;;;;;85.70;34.22;;;;;;;0.49;56.77;94626.19;5073700;28;20442;-82
2022/03/04 08:19:45;;;;;;;78.72;32.85;;;;;;;1.65;56.10;94803.13;5075266;28;20036;-82
2022/03/04 08:22:11;;;;;;;73.57;26.55;;;;;;;1.55;54.17;94797.66;5075579;28;20032;-82
2022/03/04 08:24:36;;;;;;;50.92;22.85;;;;;;;1.51;53.14;94781.66;5057346;28;20036;-82
2022/03/04 08:27:02;;;;;;;67.85;26.30;;;;;;;1.88;53.33;94831.88;5073890;28;20044;-82
2022/03/04 08:29:28;;;;;;;57.05;25.50;;;;;;;2.41;53.69;94950.50;5075908;28;20115;-83
2022/03/04 08:31:53;;;;;;;59.97;27.52;;;;;;;2.54;54.35;94952.88;5058492;28;20040;-82
2022/03/04 08:34:19;;;;;;;59.13;26.92;;;;;;;2.67;53.94;94950.06;5056793;28;20045;-83
2022/03/04 08:36:45;;;;;;;61.00;30.13;;;;;;;2.66;54.05;94953.69;5057210;28;20040;-83
2022/03/04 08:39:10;;;;;;;71.68;31.73;;;;;;;2.54;53.61;94917.03;5075535;28;20062;-83
2022/03/04 08:41:36;;;;;;;64.90;29.75;;;;;;;2.31;53.63;94873.38;5058483;28;20119;-82
2022/03/04 08:44:02;;;;;;;72.75;30.73;;;;;;;2.20;53.51;94861.09;5073727;28;20127;-82
2022/03/04 08:46:27;;;;;;;91.05;34.75;;;;;;;2.10;54.08;94862.69;5076205;28;20120;-84
2022/03/04 08:48:53;;;;;;;76.57;31.73;;;;;;;2.59;53.98;94955.63;5075839;28;20039;-83
2022/03/04 08:51:22;;;;;;;68.07;28.73;;;;;;;2.33;52.77;94915.81;5058776;28;20059;-83
2022/03/04 08:53:47;;;;;;;60.45;22.88;;;;;;;2.71;52.11;94975.53;5075125;28;20036;-84
2022/03/04 08:56:13;;;;;;;52.88;25.75;;;;;;;2.36;52.31;94934.72;5057371;28;20041;-84
2022/03/04 08:58:38;;;;;;;56.17;25.40;;;;;;;2.46;52.78;94933.09;5074583;28;20103;-83
2022/03/04 09:01:04;;;;;;;61.00;26.33;;;;;;;2.40;52.68;94960.19;5059225;28;20036;-83
2022/03/04 09:03:32;;;;;;;60.22;28.50;;;;;;;1.98;53.52;94919.44;5059433;28;20028;-84
2022/03/04 09:06:05;;;;;;;66.63;28.75;;;;;;;1.27;54.02;94793.09;5076622;28;20521;-83
2022/03/04 09:08:30;;;;;;;55.83;28.63;;;;;;;-0.08;53.22;94563.25;5075608;28;20466;-84
2022/03/04 09:10:56;;;;;;;73.78;28.92;;;;;;;-2.12;53.51;94292.59;5076717;28;20044;-84
2022/03/04 09:13:22;;;;;;;63.05;29.60;;;;;;;1.32;54.29;94821.13;5059141;28;20068;-84
2022/03/04 09:15:47;;;;;;;67.55;29.00;;;;;;;1.99;53.57;94894.88;5058741;28;20477;-84
2022/03/04 09:18:13;;;;;;;55.35;29.17;;;;;;;2.16;53.42;94882.69;5075730;28;20132;-84
2022/03/04 09:20:38;;;;;;;72.60;30.27;;;;;;;1.73;54.87;94844.63;5059102;28;20043;-85
2022/03/04 09:23:04;;;;;;;62.25;30.85;;;;;;;1.60;54.12;94792.56;5075551;28;20098;-84
2022/03/04 09:25:30;;;;;;;65.75;29.95;;;;;;;1.53;53.37;94800.50;5060070;28;20432;-84
2022/03/04 09:27:56;;;;;;;84.95;31.58;;;;;;;1.90;53.64;94829.06;5076758;28;20039;-84
2022/03/04 09:30:22;;;;;;;83.55;32.38;;;;;;;1.49;54.13;94795.94;5059021;28;20049;-83
2022/03/04 09:32:47;;;;;;;73.65;30.85;;;;;;;1.66;54.39;94833.47;5076520;28;20036;-83
2022/03/04 09:35:13;;;;;;;63.30;30.65;;;;;;;2.17;54.33;94910.47;5059193;28;20061;-83
2022/03/04 09:37:39;;;;;;;64.85;30.98;;;;;;;2.17;54.28;94894.75;5077620;28;20040;-83
2022/03/04 09:40:07;;;;;;;68.72;32.30;;;;;;;2.58;54.09;94951.41;5058550;28;20025;-83
2022/03/04 09:42:32;;;;;;;63.35;32.92;;;;;;;1.33;54.17;94784.34;5055626;28;20032;-83
2022/03/04 09:44:59;;;;;;;97.00;35.60;;;;;;;2.54;54.27;94952.88;5056337;28;20109;-83
2022/03/04 09:47:24;;;;;;;77.57;33.92;;;;;;;1.70;53.89;94818.13;5075003;28;20036;-83
2022/03/04 09:49:52;;;;;;;64.00;31.70;;;;;;;1.78;53.71;94825.63;5074878;28;20108;-83
2022/03/04 09:52:18;;;;;;;76.05;34.95;;;;;;;1.78;53.68;94796.88;5056741;28;20363;-82
2022/03/04 09:54:48;;;;;;;84.25;34.25;;;;;;;1.84;53.83;94822.88;5058182;28;20481;-83
2022/03/04 09:57:14;;;;;;;69.30;33.63;;;;;;;2.15;53.62;94840.03;5076863;28;20036;-83
2022/03/04 09:59:40;;;;;;;73.50;34.63;;;;;;;2.04;53.89;94819.94;5076416;28;20036;-82
2022/03/04 10:02:05;;;;;;;70.00;34.90;;;;;;;2.27;52.98;94834.81;5059002;28;20563;-83
2022/03/04 10:04:33;;;;;;;69.88;34.85;;;;;;;2.39;53.31;94798.16;5076264;28;20044;-82
2022/03/04 10:07:14;;;;;;;71.95;31.83;;;;;;;1.99;52.64;94751.81;5059542;28;20100;-83
2022/03/04 10:09:40;;;;;;;;;;;;;;;3.17;52.88;94933.75;5078062;28;20154;-83
2022/03/04 10:12:07;;;;;;;67.40;31.40;;;;;;;2.64;52.06;94811.75;5060021;28;19913;-83
2022/03/04 10:14:33;;;;;;;71.97;32.80;;;;;;;3.17;51.64;94827.13;5078154;28;20033;-82
2022/03/04 10:16:58;;;;;;;62.65;30.15;;;;;;;3.94;49.58;94832.56;5077275;28;20043;-82
2022/03/04 10:19:24;;;;;;;59.63;29.90;;;;;;;5.57;48.79;94898.38;5078625;28;20142;-82
2022/03/04 10:21:57;;;;;;;66.13;29.55;;;;;;;7.23;45.93;94911.88;5060024;28;20455;-83
2022/03/04 10:24:42;;;;;;;70.72;31.73;;;;;;;8.04;42.82;94908.59;5078028;28;20032;-83
2022/03/04 10:27:10;;;;;;;61.97;32.22;;;;;;;8.04;41.42;94713.97;5077746;28;20059;-83
2022/03/04 10:30:07;;;;;;;74.93;32.20;;;;;;;10.17;38.32;94882.19;5079239;28;20097;-84
2022/03/04 10:32:44;;;;;;;56.17;29.90;;;;;;;10.58;36.30;94784.53;5064254;28;20068;-85
2022/03/04 10:35:14;;;;;;;80.13;31.63;;;;;;;11.98;35.06;94893.66;5077630;28;20049;-83
2022/03/04 10:37:54;;;;;;;56.88;28.35;;;;;;;12.58;34.51;94891.94;5075888;28;20032;-82
2022/03/04 10:40:49;;;;;;;54.08;28.02;;;;;;;12.60;32.97;94888.94;5076215;28;20032;-83
2022/03/04 10:43:23;;;;;;;57.85;27.00;;;;;;;12.28;32.21;94881.81;5058193;28;20135;-82
2022/03/04 10:45:58;;;;;;;42.45;26.70;;;;;;;11.07;32.41;94794.78;5077096;28;20040;-84
2022/03/04 10:48:23;;;;;;;55.50;25.63;;;;;;;10.89;34.37;94824.75;5078641;28;20028;-83
2022/03/04 10:50:51;;;;;;;44.22;24.58;;;;;;;11.00;33.29;94866.00;5078833;28;20040;-84
2022/03/04 10:53:24;;;;;;;37.38;21.80;;;;;;;11.28;33.12;94867.00;5061060;28;20080;-84
2022/03/04 10:55:53;;;;;;;51.35;21.70;;;;;;;11.11;32.79;94790.50;5077552;28;20036;-84
2022/03/04 10:58:21;;;;;;;51.42;23.58;;;;;;;11.69;32.59;94869.09;5075773;28;20056;-85
2022/03/04 11:00:55;;;;;;;44.70;24.05;;;;;;;11.10;32.62;94860.56;5077651;28;20043;-84
2022/03/04 11:03:23;;;;;;;45.38;22.52;;;;;;;10.40;33.69;94793.19;5076261;28;20028;-85
2022/03/04 11:05:51;;;;;;;42.60;22.20;;;;;;;10.84;33.49;94854.75;5062374;28;20039;-84
2022/03/04 11:08:20;;;;;;;46.38;22.70;;;;;;;11.56;32.80;94855.47;5061204;28;20056;-84
2022/03/04 11:10:45;;;;;;;35.72;19.38;;;;;;;10.11;32.45;94697.81;5062720;28;20081;-83
2022/03/04 11:13:12;;;;;;;42.50;20.65;;;;;;;10.82;33.88;94856.13;5064148;28;20032;-83
2022/03/04 11:15:44;;;;;;;44.38;21.42;;;;;;;10.13;33.81;94812.25;5077346;28;20044;-84
2022/03/04 11:18:11;;;;;;;49.60;22.58;;;;;;;10.51;33.53;94838.97;5063643;28;20106;-85